createdAt,value
2017-08-04T00:00:24.800Z,995.37
2017-08-04T00:01:34.791Z,995.37
2017-08-04T00:02:45.072Z,995.36
2017-08-04T00:03:55.060Z,995.38
2017-08-04T00:05:05.385Z,995.31
2017-08-04T00:06:15.732Z,995.36
2017-08-04T00:07:26.048Z,995.33
2017-08-04T00:08:36.349Z,995.3
2017-08-04T00:09:47.929Z,995.34
2017-08-04T00:10:57.921Z,995.36
2017-08-04T00:12:07.911Z,995.35
2017-08-04T00:13:18.205Z,995.35
2017-08-04T00:14:28.492Z,995.4
2017-08-04T00:15:38.467Z,995.41
2017-08-04T00:16:48.776Z,995.42
2017-08-04T00:17:58.750Z,995.4
2017-08-04T00:19:08.423Z,995.44
2017-08-04T00:20:18.714Z,995.43
2017-08-04T00:21:29.017Z,995.4
2017-08-04T00:22:39.866Z,995.38
2017-08-04T00:23:50.245Z,995.37
2017-08-04T00:25:00.579Z,995.32
2017-08-04T00:26:10.257Z,995.32
2017-08-04T00:27:20.547Z,995.31
2017-08-04T00:28:30.831Z,995.32
2017-08-04T00:29:41.128Z,995.31
2017-08-04T00:30:51.425Z,995.34
2017-08-04T00:32:01.713Z,995.34
2017-08-04T00:33:12.020Z,995.36
2017-08-04T00:34:22.306Z,995.34
2017-08-04T00:35:32.333Z,995.33
2017-08-04T00:36:42.317Z,995.29
2017-08-04T00:37:52.309Z,995.36
2017-08-04T00:39:02.594Z,995.33
2017-08-04T00:40:12.260Z,995.39
2017-08-04T00:41:22.649Z,995.43
2017-08-04T00:42:32.630Z,995.39
2017-08-04T00:43:42.623Z,995.37
2017-08-04T00:44:52.912Z,995.33
2017-08-04T00:46:03.191Z,995.38
2017-08-04T00:47:13.226Z,995.38
2017-08-04T00:48:23.208Z,995.4
2017-08-04T00:49:33.500Z,995.4
2017-08-04T00:50:43.780Z,995.41
2017-08-04T00:51:54.088Z,995.42
2017-08-04T00:53:04.379Z,995.39
2017-08-04T00:54:14.667Z,995.37
2017-08-04T00:55:24.664Z,995.39
2017-08-04T00:56:34.944Z,995.38
2017-08-04T00:57:44.916Z,995.39
2017-08-04T00:58:54.940Z,995.29
2017-08-04T01:00:05.242Z,995.29
2017-08-04T01:01:15.521Z,995.27
2017-08-04T01:02:25.813Z,995.29
2017-08-04T01:03:38.445Z,995.28
2017-08-04T01:04:48.787Z,995.28
2017-08-04T01:05:59.080Z,995.31
2017-08-04T01:07:09.372Z,995.37
2017-08-04T01:08:19.649Z,995.39
2017-08-04T01:09:29.934Z,995.4
2017-08-04T01:10:40.291Z,995.38
2017-08-04T01:11:50.563Z,995.38
2017-08-04T01:13:00.546Z,995.34
2017-08-04T01:14:10.853Z,995.28
2017-08-04T01:15:20.832Z,995.24
2017-08-04T01:16:32.060Z,995.24
2017-08-04T01:17:42.031Z,995.25
2017-08-04T01:18:52.321Z,995.24
2017-08-04T01:20:02.613Z,995.26
2017-08-04T01:21:12.285Z,995.27
2017-08-04T01:22:22.278Z,995.25
2017-08-04T01:23:32.558Z,995.23
2017-08-04T01:24:42.842Z,995.25
2017-08-04T01:25:52.849Z,995.25
2017-08-04T01:27:03.159Z,995.22
2017-08-04T01:28:12.838Z,995.22
2017-08-04T01:29:23.122Z,995.24
2017-08-04T01:30:33.109Z,995.22
2017-08-04T01:31:42.797Z,995.22
2017-08-04T01:32:53.073Z,995.23
2017-08-04T01:34:03.425Z,995.18
2017-08-04T01:35:13.719Z,995.16
2017-08-04T01:36:24.009Z,995.14
2017-08-04T01:37:34.306Z,995.15
2017-08-04T01:38:43.992Z,995.18
2017-08-04T01:39:53.983Z,995.16
2017-08-04T01:41:03.956Z,995.15
2017-08-04T01:42:14.953Z,995.14
2017-08-04T01:43:24.948Z,995.13
2017-08-04T01:44:35.243Z,995.13
2017-08-04T01:45:45.540Z,995.11
2017-08-04T01:46:55.854Z,995.15
2017-08-04T01:48:05.822Z,995.13
2017-08-04T01:49:16.112Z,995.14
2017-08-04T01:50:26.081Z,995.16
2017-08-04T01:51:36.106Z,995.21
2017-08-04T01:52:46.141Z,995.24
2017-08-04T01:53:56.437Z,995.23
2017-08-04T01:55:06.420Z,995.24
2017-08-04T01:56:16.698Z,995.24
2017-08-04T01:57:27.050Z,995.25
2017-08-04T01:58:37.350Z,995.32
2017-08-04T01:59:47.635Z,995.34
2017-08-04T02:00:57.663Z,995.35
2017-08-04T02:02:07.939Z,995.34
2017-08-04T02:03:17.615Z,995.31
2017-08-04T02:04:27.915Z,995.32
2017-08-04T02:05:37.581Z,995.3
2017-08-04T02:06:47.887Z,995.26
2017-08-04T02:07:57.861Z,995.26
2017-08-04T02:09:07.895Z,995.22
2017-08-04T02:10:18.186Z,995.23
2017-08-04T02:11:28.486Z,995.22
2017-08-04T02:12:38.467Z,995.21
2017-08-04T02:13:48.786Z,995.18
2017-08-04T02:14:59.140Z,995.15
2017-08-04T02:16:09.425Z,995.12
2017-08-04T02:17:19.763Z,995.12
2017-08-04T02:18:29.744Z,995.1
2017-08-04T02:19:39.724Z,995.1
2017-08-04T02:20:50.069Z,995.06
2017-08-04T02:22:00.380Z,995.05
2017-08-04T02:23:10.064Z,995.07
2017-08-04T02:24:20.347Z,995.06
2017-08-04T02:25:30.635Z,995.03
2017-08-04T02:26:40.672Z,995
2017-08-04T02:27:50.645Z,995
2017-08-04T02:29:00.933Z,995.02
2017-08-04T02:30:10.946Z,995.03
2017-08-04T02:31:21.235Z,995.05
2017-08-04T02:32:31.580Z,994.99
2017-08-04T02:33:41.898Z,994.98
2017-08-04T02:34:51.877Z,994.94
2017-08-04T02:36:02.167Z,994.92
2017-08-04T02:37:12.145Z,994.91
2017-08-04T02:38:22.497Z,994.87
2017-08-04T02:39:32.797Z,994.9
2017-08-04T02:40:43.107Z,994.92
2017-08-04T02:41:53.385Z,994.94
2017-08-04T02:43:03.051Z,994.96
2017-08-04T02:44:13.348Z,994.99
2017-08-04T02:45:23.635Z,994.98
2017-08-04T02:46:33.912Z,995
2017-08-04T02:47:43.913Z,995
2017-08-04T02:48:53.934Z,995.02
2017-08-04T02:50:04.292Z,994.98
2017-08-04T02:51:14.568Z,995
2017-08-04T02:52:24.846Z,994.99
2017-08-04T02:53:36.481Z,994.98
2017-08-04T02:54:46.774Z,994.98
2017-08-04T02:55:57.066Z,994.99
2017-08-04T02:57:07.403Z,994.97
2017-08-04T02:58:17.379Z,994.98
2017-08-04T02:59:27.379Z,995.05
2017-08-04T03:00:37.687Z,995.03
2017-08-04T03:01:48.029Z,995.03
2017-08-04T03:33:29.024Z,994.91
2017-08-04T03:34:39.861Z,994.94
2017-08-04T03:35:49.881Z,994.94
2017-08-04T03:36:59.844Z,994.96
2017-08-04T03:38:10.147Z,994.95
2017-08-04T03:39:20.488Z,994.97
2017-08-04T03:40:30.774Z,994.94
2017-08-04T03:41:40.748Z,994.95
2017-08-04T03:42:51.027Z,994.96
2017-08-04T03:44:03.482Z,994.92
2017-08-04T03:45:13.499Z,994.92
2017-08-04T03:46:23.169Z,994.91
2017-08-04T03:47:33.480Z,994.9
2017-08-04T03:48:43.770Z,994.86
2017-08-04T03:49:54.050Z,994.86
2017-08-04T03:51:04.340Z,994.85
2017-08-04T03:52:14.630Z,994.85
2017-08-04T03:53:24.908Z,994.83
2017-08-04T03:54:35.203Z,994.83
2017-08-04T03:55:45.500Z,994.83
2017-08-04T03:56:55.832Z,994.84
2017-08-04T03:58:05.808Z,994.83
2017-08-04T03:59:16.097Z,994.85
2017-08-04T04:00:26.097Z,994.83
2017-08-04T04:01:36.115Z,994.87
2017-08-04T04:02:46.469Z,994.87
2017-08-04T04:03:56.794Z,994.89
2017-08-04T04:05:07.086Z,994.91
2017-08-04T04:06:17.365Z,994.9
2017-08-04T04:07:27.660Z,994.92
2017-08-04T04:08:37.984Z,994.93
2017-08-04T04:09:48.296Z,994.96
2017-08-04T04:10:58.266Z,994.95
2017-08-04T04:12:08.545Z,994.94
2017-08-04T04:13:18.534Z,994.97
2017-08-04T04:14:28.864Z,994.98
2017-08-04T04:15:39.154Z,994.9
2017-08-04T04:16:49.441Z,994.95
2017-08-04T04:17:59.738Z,994.97
2017-08-04T04:19:10.039Z,994.96
2017-08-04T04:20:20.323Z,994.99
2017-08-04T04:21:30.635Z,994.96
2017-08-04T04:22:40.928Z,994.98
2017-08-04T04:23:51.197Z,994.95
2017-08-04T04:25:01.173Z,994.95
2017-08-04T04:26:11.456Z,994.93
2017-08-04T04:27:21.442Z,994.92
2017-08-04T04:28:31.731Z,994.98
2017-08-04T04:29:42.042Z,994.96
2017-08-04T04:30:52.028Z,994.99
2017-08-04T04:32:02.317Z,995.01
2017-08-04T04:33:12.282Z,995.01
2017-08-04T04:34:22.574Z,995.01
2017-08-04T04:35:32.876Z,995
2017-08-04T04:36:43.802Z,995
2017-08-04T04:37:54.129Z,994.98
2017-08-04T04:39:04.413Z,994.98
2017-08-04T04:40:14.399Z,994.99
2017-08-04T04:41:24.685Z,994.98
2017-08-04T04:42:34.967Z,995.01
2017-08-04T04:43:45.723Z,995
2017-08-04T04:44:56.022Z,995.01
2017-08-04T04:46:06.319Z,994.98
2017-08-04T04:47:16.597Z,995
2017-08-04T04:48:29.159Z,995.02
2017-08-04T04:49:38.833Z,994.99
2017-08-04T04:50:49.124Z,995.01
2017-08-04T04:51:59.114Z,995.05
2017-08-04T04:53:09.103Z,995.02
2017-08-04T04:54:19.443Z,995.08
2017-08-04T04:55:29.742Z,995.09
2017-08-04T04:56:40.033Z,995.09
2017-08-04T04:57:50.347Z,995.06
2017-08-04T04:59:00.660Z,995.04
2017-08-04T05:00:10.635Z,995.05
2017-08-04T05:01:20.925Z,995
2017-08-04T05:02:31.214Z,995.04
2017-08-04T05:03:41.504Z,995.03
2017-08-04T05:04:51.809Z,995.02
2017-08-04T05:06:02.104Z,995.08
2017-08-04T05:07:12.386Z,995.13
2017-08-04T05:08:22.669Z,995.1
2017-08-04T05:09:32.663Z,995.15
2017-08-04T05:10:42.921Z,995.15
2017-08-04T05:11:52.920Z,995.12
2017-08-04T05:13:03.274Z,995.1
2017-08-04T05:14:13.259Z,995.07
2017-08-04T05:15:23.259Z,995.19
2017-08-04T05:16:33.243Z,995.39
2017-08-04T05:17:43.230Z,995.38
2017-08-04T05:18:53.250Z,995.33
2017-08-04T05:20:03.533Z,995.35
2017-08-04T05:21:13.522Z,995.35
2017-08-04T05:22:23.818Z,995.38
2017-08-04T05:23:34.100Z,995.45
2017-08-04T05:24:44.451Z,995.46
2017-08-04T05:25:54.749Z,995.52
2017-08-04T05:27:05.059Z,995.42
2017-08-04T05:28:15.355Z,995.69
2017-08-04T05:29:25.653Z,995.62
2017-08-04T05:30:35.952Z,995.55
2017-08-04T05:31:45.945Z,995.59
2017-08-04T05:32:56.238Z,995.55
2017-08-04T05:34:06.214Z,995.53
2017-08-04T05:35:16.509Z,995.48
2017-08-04T05:36:26.864Z,995.38
2017-08-04T05:37:37.157Z,995.59
2017-08-04T05:38:47.436Z,995.91
2017-08-04T05:39:57.726Z,996.35
2017-08-04T05:41:08.032Z,996.15
2017-08-04T05:42:18.373Z,995.88
2017-08-04T05:43:28.684Z,995.99
2017-08-04T05:44:38.980Z,996.1
2017-08-04T05:45:49.295Z,995.63
2017-08-04T05:46:59.345Z,995.66
2017-08-04T05:48:09.677Z,995.41
2017-08-04T05:49:19.972Z,995.39
2017-08-04T05:50:30.269Z,995.36
2017-08-04T05:51:40.562Z,995.37
2017-08-04T05:52:50.575Z,995.54
2017-08-04T05:54:00.637Z,995.31
2017-08-04T05:55:10.945Z,995.22
2017-08-04T05:56:21.257Z,995.24
2017-08-04T05:57:31.572Z,995.26
2017-08-04T05:58:41.879Z,995.27
2017-08-04T05:59:52.232Z,995.27
2017-08-04T06:01:02.534Z,995.27
2017-08-04T06:02:12.508Z,995.35
2017-08-04T06:03:22.827Z,995.47
2017-08-04T06:04:33.132Z,995.38
2017-08-04T06:05:43.168Z,995.37
2017-08-04T06:06:53.167Z,995.48
2017-08-04T06:08:03.458Z,995.45
2017-08-04T06:09:13.760Z,995.51
2017-08-04T06:10:24.078Z,995.53
2017-08-04T06:11:33.801Z,995.51
2017-08-04T06:12:44.124Z,995.55
2017-08-04T06:13:54.103Z,995.57
2017-08-04T06:15:04.094Z,995.55
2017-08-04T06:16:14.387Z,995.59
2017-08-04T06:17:24.736Z,995.6
2017-08-04T06:18:34.726Z,995.57
2017-08-04T06:19:45.066Z,995.59
2017-08-04T06:20:55.357Z,995.56
2017-08-04T06:22:05.662Z,995.65
2017-08-04T06:23:16.049Z,995.72
2017-08-04T06:24:26.336Z,995.77
2017-08-04T06:25:36.621Z,995.84
2017-08-04T06:26:46.933Z,995.9
2017-08-04T06:27:57.232Z,996.01
2017-08-04T06:29:07.578Z,996
2017-08-04T06:30:17.939Z,996.06
2017-08-04T06:31:28.223Z,996.04
2017-08-04T06:32:38.200Z,996
2017-08-04T06:33:48.492Z,996.01
2017-08-04T06:34:58.842Z,995.99
2017-08-04T06:36:08.840Z,996
2017-08-04T06:37:19.140Z,995.99
2017-08-04T06:38:29.482Z,996.01
2017-08-04T06:39:39.782Z,996.04
2017-08-04T06:40:50.073Z,996.06
2017-08-04T06:42:00.053Z,996.05
2017-08-04T06:43:09.731Z,996
2017-08-04T06:44:20.026Z,995.98
2017-08-04T06:45:29.695Z,995.99
2017-08-04T06:46:40.009Z,995.94
2017-08-04T06:47:49.992Z,995.95
2017-08-04T06:48:59.978Z,995.96
2017-08-04T06:50:10.269Z,995.96
2017-08-04T06:51:20.570Z,996
2017-08-04T06:52:30.869Z,996.01
2017-08-04T06:53:41.145Z,996.01
2017-08-04T06:54:51.431Z,996.01
2017-08-04T06:56:01.732Z,996.02
2017-08-04T06:57:12.030Z,996.08
2017-08-04T06:58:22.371Z,996.03
2017-08-04T06:59:32.912Z,996.08
2017-08-04T07:00:43.211Z,996.05
2017-08-04T07:01:53.206Z,996.07
2017-08-04T07:03:02.946Z,996.08
2017-08-04T07:04:13.238Z,996.11
2017-08-04T07:05:23.525Z,996.09
2017-08-04T07:06:33.843Z,996.1
2017-08-04T07:07:44.136Z,996.13
2017-08-04T07:08:54.502Z,996.09
2017-08-04T07:10:04.919Z,996.08
2017-08-04T07:11:15.217Z,996
2017-08-04T07:12:24.901Z,995.95
2017-08-04T07:13:34.893Z,995.95
2017-08-04T07:14:44.925Z,995.97
2017-08-04T07:15:55.224Z,995.95
2017-08-04T07:17:05.509Z,995.95
2017-08-04T07:18:15.802Z,995.93
2017-08-04T07:19:25.189Z,996.01
2017-08-04T07:20:35.552Z,995.95
2017-08-04T07:21:45.864Z,995.95
2017-08-04T07:22:56.185Z,995.97
2017-08-04T07:24:06.491Z,995.98
2017-08-04T07:25:16.797Z,995.98
2017-08-04T07:26:27.138Z,996
2017-08-04T07:27:37.423Z,996.01
2017-08-04T07:28:47.715Z,996.01
2017-08-04T07:29:58.013Z,996.01
2017-08-04T07:31:08.294Z,996.03
2017-08-04T07:32:17.964Z,996.03
2017-08-04T07:33:28.274Z,996
2017-08-04T07:34:40.203Z,995.97
2017-08-04T07:35:49.890Z,996
2017-08-04T07:37:00.175Z,995.98
2017-08-04T07:38:10.502Z,995.98
2017-08-04T07:39:20.799Z,995.94
2017-08-04T07:40:31.104Z,995.93
2017-08-04T07:41:41.399Z,995.96
2017-08-04T07:42:51.712Z,995.96
2017-08-04T07:44:02.004Z,995.97
2017-08-04T07:45:12.322Z,995.96
2017-08-04T07:46:21.998Z,996
2017-08-04T07:47:32.294Z,996.03
2017-08-04T07:48:42.588Z,996.09
2017-08-04T07:49:52.615Z,996.12
2017-08-04T07:51:02.918Z,996.14
2017-08-04T07:52:12.917Z,996.13
2017-08-04T07:53:23.202Z,996.06
2017-08-04T07:54:33.490Z,996.1
2017-08-04T07:55:43.779Z,996.03
2017-08-04T07:56:54.081Z,996.07
2017-08-04T07:58:03.746Z,996.06
2017-08-04T07:59:13.787Z,996.09
2017-08-04T08:00:24.101Z,996.08
2017-08-04T08:01:34.390Z,996.13
2017-08-04T08:02:44.690Z,996.12
2017-08-04T08:03:54.680Z,996.12
2017-08-04T08:05:04.664Z,996.16
2017-08-04T08:06:14.334Z,996.11
2017-08-04T08:07:24.330Z,996.15
2017-08-04T08:08:34.631Z,996.15
2017-08-04T08:09:44.954Z,996.15
2017-08-04T08:10:54.982Z,996.1
2017-08-04T08:12:04.974Z,996.11
2017-08-04T08:13:15.259Z,996.13
2017-08-04T08:14:25.611Z,996.14
2017-08-04T08:15:35.729Z,996.17
2017-08-04T08:16:46.086Z,996.16
2017-08-04T08:17:56.371Z,996.08
2017-08-04T08:19:06.656Z,996.1
2017-08-04T08:20:16.638Z,996.1
2017-08-04T08:21:26.939Z,996.1
2017-08-04T08:22:37.272Z,996.06
2017-08-04T08:23:47.581Z,996.1
2017-08-04T08:24:57.874Z,996.13
2017-08-04T08:26:08.168Z,996.19
2017-08-04T08:27:18.156Z,996.17
2017-08-04T08:28:28.182Z,996.23
2017-08-04T08:29:38.484Z,996.24
2017-08-04T08:30:48.800Z,996.3
2017-08-04T08:31:59.082Z,996.27
2017-08-04T08:33:09.081Z,996.3
2017-08-04T08:34:19.375Z,996.36
2017-08-04T08:35:29.395Z,996.29
2017-08-04T08:36:39.699Z,996.34
2017-08-04T08:37:49.990Z,996.32
2017-08-04T08:39:00.302Z,996.32
2017-08-04T08:40:11.254Z,996.36
2017-08-04T08:41:21.535Z,996.36
2017-08-04T08:42:31.841Z,996.31
2017-08-04T08:43:42.132Z,996.35
2017-08-04T08:44:52.117Z,996.3
2017-08-04T08:46:02.409Z,996.32
2017-08-04T08:47:12.399Z,996.31
2017-08-04T08:48:22.693Z,996.33
2017-08-04T08:49:33.093Z,996.32
2017-08-04T08:50:43.103Z,996.3
2017-08-04T08:51:55.813Z,996.35
2017-08-04T08:53:05.796Z,996.32
2017-08-04T08:54:17.327Z,996.34
2017-08-04T08:55:27.650Z,996.37
2017-08-04T08:56:38.383Z,996.33
2017-08-04T08:57:48.737Z,996.34
2017-08-04T08:59:03.336Z,996.33
2017-08-04T09:00:13.020Z,996.39
2017-08-04T09:01:23.342Z,996.31
2017-08-04T09:02:35.208Z,996.27
2017-08-04T09:03:45.572Z,996.32
2017-08-04T09:04:55.576Z,996.3
2017-08-04T09:06:05.858Z,996.31
2017-08-04T09:07:15.844Z,996.29
2017-08-04T09:08:26.137Z,996.26
2017-08-04T09:09:36.551Z,996.21
2017-08-04T09:10:46.867Z,996.16
2017-08-04T09:11:56.892Z,996.22
2017-08-04T09:13:07.196Z,996.14
2017-08-04T09:14:17.511Z,996.17
2017-08-04T09:15:27.905Z,996.22
2017-08-04T09:16:38.212Z,996.21
2017-08-04T09:17:48.519Z,996.26
2017-08-04T09:18:58.514Z,996.21
2017-08-04T09:20:08.530Z,996.22
2017-08-04T09:21:18.892Z,996.24
2017-08-04T09:22:29.215Z,996.3
2017-08-04T09:23:39.528Z,996.22
2017-08-04T09:24:49.838Z,996.2
2017-08-04T09:26:00.135Z,996.18
2017-08-04T09:27:10.184Z,996.16
2017-08-04T09:28:20.480Z,996.09
2017-08-04T09:29:33.228Z,996.15
2017-08-04T09:30:43.538Z,996.1
2017-08-04T09:31:53.857Z,996.08
2017-08-04T09:33:03.857Z,996.06
2017-08-04T09:34:14.347Z,996.09
2017-08-04T09:35:24.331Z,996.07
2017-08-04T09:36:34.659Z,996.06
2017-08-04T09:37:44.334Z,996.03
2017-08-04T09:38:54.685Z,996
2017-08-04T09:40:06.766Z,995.97
2017-08-04T09:41:17.064Z,995.94
2017-08-04T09:42:27.390Z,995.95
2017-08-04T09:43:37.694Z,995.97
2017-08-04T09:44:48.012Z,995.94
2017-08-04T09:45:57.997Z,995.92
2017-08-04T09:47:08.334Z,995.96
2017-08-04T09:48:18.641Z,995.98
2017-08-04T09:49:28.638Z,995.93
2017-08-04T09:50:38.677Z,995.94
2017-08-04T09:51:48.676Z,996.03
2017-08-04T09:52:58.989Z,995.96
2017-08-04T09:54:09.334Z,995.93
2017-08-04T09:55:19.636Z,995.89
2017-08-04T09:56:30.005Z,995.86
2017-08-04T09:57:40.292Z,995.9
2017-08-04T09:58:50.598Z,995.89
2017-08-04T10:00:00.922Z,995.85
2017-08-04T10:01:11.229Z,995.93
2017-08-04T10:02:21.568Z,995.88
2017-08-04T10:03:31.554Z,995.88
2017-08-04T10:04:43.762Z,995.88
2017-08-04T10:05:53.774Z,995.91
2017-08-04T10:07:03.791Z,995.9
2017-08-04T10:08:14.100Z,995.9
2017-08-04T10:09:24.420Z,995.87
2017-08-04T10:10:34.424Z,995.92
2017-08-04T10:11:44.749Z,995.89
2017-08-04T10:12:55.047Z,995.92
2017-08-04T10:14:05.098Z,995.93
2017-08-04T10:15:15.105Z,995.97
2017-08-04T10:16:25.424Z,995.95
2017-08-04T10:17:35.719Z,995.94
2017-08-04T10:18:46.236Z,995.93
2017-08-04T10:19:56.593Z,995.92
2017-08-04T10:21:06.901Z,995.93
2017-08-04T10:22:17.422Z,995.95
2017-08-04T10:23:27.744Z,995.91
2017-08-04T10:24:38.039Z,995.92
2017-08-04T10:25:48.028Z,995.91
2017-08-04T10:26:58.039Z,995.89
2017-08-04T10:28:08.353Z,995.97
2017-08-04T10:29:18.656Z,995.91
2017-08-04T10:30:29.006Z,995.84
2017-08-04T10:31:39.062Z,995.9
2017-08-04T10:32:49.377Z,995.87
2017-08-04T10:33:59.682Z,995.91
2017-08-04T10:35:09.694Z,995.92
2017-08-04T10:36:19.985Z,995.95
2017-08-04T10:37:29.966Z,995.9
2017-08-04T10:38:40.278Z,995.93
2017-08-04T10:39:50.293Z,995.95
2017-08-04T10:41:00.290Z,995.91
2017-08-04T10:42:10.606Z,996
2017-08-04T10:43:20.369Z,995.9
2017-08-04T10:44:30.727Z,995.93
2017-08-04T10:45:41.043Z,995.94
2017-08-04T10:46:51.356Z,995.91
2017-08-04T10:48:01.673Z,995.9
2017-08-04T10:49:13.282Z,995.91
2017-08-04T10:50:23.269Z,995.86
2017-08-04T10:51:33.547Z,995.96
2017-08-04T10:52:43.886Z,995.93
2017-08-04T10:53:53.896Z,995.95
2017-08-04T10:55:04.250Z,995.94
2017-08-04T10:56:14.246Z,995.96
2017-08-04T10:57:24.564Z,995.99
2017-08-04T10:58:34.560Z,995.94
2017-08-04T10:59:44.794Z,996.01
2017-08-04T11:00:55.164Z,995.96
2017-08-04T11:02:05.481Z,995.95
2017-08-04T11:03:15.486Z,995.95
2017-08-04T11:04:27.398Z,996.04
2017-08-04T11:05:37.676Z,995.92
2017-08-04T11:06:47.372Z,995.89
2017-08-04T11:07:57.059Z,995.94
2017-08-04T11:09:09.245Z,995.94
2017-08-04T11:10:19.582Z,995.88
2017-08-04T11:11:29.276Z,995.89
2017-08-04T11:12:39.666Z,995.86
2017-08-04T11:13:49.981Z,995.92
2017-08-04T11:15:00.299Z,995.88
2017-08-04T11:16:10.621Z,995.85
2017-08-04T11:17:20.625Z,995.87
2017-08-04T11:18:30.664Z,995.83
2017-08-04T11:19:40.968Z,995.87
2017-08-04T11:20:51.283Z,995.86
2017-08-04T11:22:01.572Z,995.82
2017-08-04T11:23:11.256Z,995.87
2017-08-04T11:24:21.622Z,995.83
2017-08-04T11:25:31.640Z,995.84
2017-08-04T11:26:41.936Z,995.89
2017-08-04T11:27:53.092Z,995.82
2017-08-04T11:29:03.412Z,995.79
2017-08-04T11:30:13.757Z,995.78
2017-08-04T11:31:24.125Z,995.85
2017-08-04T11:32:35.176Z,995.74
2017-08-04T11:33:45.480Z,995.75
2017-08-04T11:34:55.793Z,995.75
2017-08-04T11:36:06.143Z,995.69
2017-08-04T11:37:16.152Z,995.64
2017-08-04T11:38:26.475Z,995.68
2017-08-04T11:39:36.788Z,995.65
2017-08-04T11:40:46.783Z,995.66
2017-08-04T11:41:57.176Z,995.65
2017-08-04T11:43:07.491Z,995.67
2017-08-04T11:44:17.516Z,995.65
2017-08-04T11:45:27.513Z,995.69
2017-08-04T11:46:37.858Z,995.7
2017-08-04T11:47:48.203Z,995.63
2017-08-04T11:48:58.596Z,995.6
2017-08-04T11:50:10.833Z,995.61
2017-08-04T11:51:21.156Z,995.58
2017-08-04T11:52:31.457Z,995.62
2017-08-04T11:53:41.795Z,995.59
2017-08-04T11:54:52.175Z,995.56
2017-08-04T11:56:02.488Z,995.55
2017-08-04T11:57:12.484Z,995.53
2017-08-04T11:58:22.829Z,995.56
2017-08-04T11:59:34.338Z,995.53
2017-08-04T12:00:44.632Z,995.56
2017-08-04T12:01:55.468Z,995.55
2017-08-04T12:03:05.486Z,995.55
2017-08-04T12:04:15.552Z,995.58
2017-08-04T12:05:25.867Z,995.52
2017-08-04T12:06:35.871Z,995.54
2017-08-04T12:07:46.191Z,995.55
2017-08-04T12:08:56.487Z,995.54
2017-08-04T12:10:06.215Z,995.53
2017-08-04T12:11:16.525Z,995.46
2017-08-04T12:12:26.853Z,995.57
2017-08-04T12:13:39.113Z,995.5
2017-08-04T12:14:49.739Z,995.47
2017-08-04T12:16:00.055Z,995.45
2017-08-04T12:17:10.078Z,995.47
2017-08-04T12:18:20.407Z,995.41
2017-08-04T12:19:30.737Z,995.46
2017-08-04T12:20:41.064Z,995.44
2017-08-04T12:21:51.532Z,995.39
2017-08-04T12:23:01.818Z,995.32
2017-08-04T12:24:12.132Z,995.35
2017-08-04T12:25:22.436Z,995.31
2017-08-04T12:26:32.753Z,995.36
2017-08-04T12:27:42.796Z,995.32
2017-08-04T12:28:53.096Z,995.25
2017-08-04T12:30:03.413Z,995.21
2017-08-04T12:31:13.738Z,995.21
2017-08-04T12:32:25.990Z,995.21
2017-08-04T12:33:36.018Z,995.21
2017-08-04T12:34:46.578Z,995.2
2017-08-04T12:35:56.303Z,995.21
2017-08-04T12:37:06.619Z,995.21
2017-08-04T12:38:16.907Z,995.18
2017-08-04T12:39:27.260Z,995.14
2017-08-04T12:40:37.283Z,995.15
2017-08-04T12:41:47.587Z,995.15
2017-08-04T12:42:57.893Z,995.18
2017-08-04T12:44:08.196Z,995.11
2017-08-04T12:45:18.553Z,995.11
2017-08-04T12:46:28.853Z,995.09
2017-08-04T12:47:39.173Z,995.07
2017-08-04T12:48:49.188Z,995
2017-08-04T12:49:59.547Z,995
2017-08-04T12:51:09.586Z,995.02
2017-08-04T12:52:19.894Z,994.97
2017-08-04T12:53:30.207Z,994.93
2017-08-04T12:54:40.528Z,994.88
2017-08-04T12:55:50.833Z,994.91
2017-08-04T12:57:01.486Z,994.86
2017-08-04T12:58:11.489Z,994.83
2017-08-04T12:59:21.803Z,994.84
2017-08-04T13:00:31.814Z,994.84
2017-08-04T13:01:42.136Z,994.81
2017-08-04T13:02:52.439Z,994.84
2017-08-04T13:04:02.740Z,994.78
2017-08-04T13:05:12.751Z,994.79
2017-08-04T13:06:22.759Z,994.77
2017-08-04T13:07:33.078Z,994.74
2017-08-04T13:08:43.444Z,994.77
2017-08-04T13:09:53.753Z,994.75
2017-08-04T13:11:04.113Z,994.75
2017-08-04T13:12:14.184Z,994.71
2017-08-04T13:13:24.571Z,994.72
2017-08-04T13:14:35.002Z,994.72
2017-08-04T13:15:45.065Z,994.73
2017-08-04T13:16:54.514Z,994.7
2017-08-04T13:18:04.886Z,994.71
2017-08-04T13:19:14.654Z,994.68
2017-08-04T13:20:25.081Z,994.62
2017-08-04T13:21:35.139Z,994.63
2017-08-04T13:22:45.552Z,994.61
2017-08-04T13:23:55.923Z,994.6
2017-08-04T13:25:06.308Z,994.61
2017-08-04T13:26:16.096Z,994.61
2017-08-04T13:27:26.468Z,994.59
2017-08-04T13:28:36.843Z,994.59
2017-08-04T13:29:47.205Z,994.57
2017-08-04T13:30:57.819Z,994.56
2017-08-04T13:32:08.232Z,994.54
2017-08-04T13:33:18.586Z,994.53
2017-08-04T13:34:28.965Z,994.54
2017-08-04T13:35:39.329Z,994.51
2017-08-04T13:36:49.682Z,994.52
2017-08-04T13:38:00.088Z,994.53
2017-08-04T13:39:10.137Z,994.52
2017-08-04T13:40:20.193Z,994.54
2017-08-04T13:41:30.550Z,994.49
2017-08-04T13:42:40.950Z,994.51
2017-08-04T13:43:52.255Z,994.47
2017-08-04T13:45:02.647Z,994.48
2017-08-04T13:46:12.727Z,994.51
2017-08-04T13:47:23.105Z,994.44
2017-08-04T13:48:33.478Z,994.43
2017-08-04T13:49:43.599Z,994.43
2017-08-04T13:50:53.680Z,994.41
2017-08-04T13:52:04.064Z,994.38
2017-08-04T13:53:14.133Z,994.37
2017-08-04T13:54:24.513Z,994.32
2017-08-04T13:55:34.625Z,994.31
2017-08-04T13:56:44.712Z,994.3
2017-08-04T13:57:54.466Z,994.27
2017-08-04T13:59:04.838Z,994.28
2017-08-04T14:00:15.198Z,994.23
2017-08-04T14:01:25.299Z,994.21
2017-08-04T14:02:35.664Z,994.23
2017-08-04T14:03:46.039Z,994.18
2017-08-04T14:04:56.101Z,994.18
2017-08-04T14:06:06.477Z,994.17
2017-08-04T14:07:16.608Z,994.17
2017-08-04T14:08:27.015Z,994.14
2017-08-04T14:09:39.175Z,994.09
2017-08-04T14:10:49.571Z,994.08
2017-08-04T14:11:59.956Z,994.05
2017-08-04T14:13:10.414Z,994.03
2017-08-04T14:14:20.839Z,994.01
2017-08-04T14:15:31.251Z,993.97
2017-08-04T14:16:41.644Z,993.98
2017-08-04T14:17:52.043Z,993.94
2017-08-04T14:19:02.193Z,993.88
2017-08-04T14:20:12.604Z,993.9
2017-08-04T14:21:22.996Z,993.95
2017-08-04T14:22:33.394Z,993.91
2017-08-04T14:23:43.801Z,993.95
2017-08-04T14:24:54.247Z,993.96
2017-08-04T14:26:04.350Z,993.97
2017-08-04T14:27:14.776Z,993.92
2017-08-04T14:28:25.182Z,993.93
2017-08-04T14:29:35.586Z,993.93
2017-08-04T14:30:46.286Z,993.94
2017-08-04T14:31:56.786Z,993.92
2017-08-04T14:33:07.175Z,993.9
2017-08-04T14:34:17.476Z,993.87
2017-08-04T14:35:27.898Z,993.84
2017-08-04T14:36:38.709Z,993.84
2017-08-04T14:37:49.151Z,993.86
2017-08-04T14:38:59.779Z,993.87
2017-08-04T14:40:10.160Z,993.9
2017-08-04T14:41:20.553Z,993.88
2017-08-04T14:42:30.979Z,993.85
2017-08-04T14:43:41.910Z,993.86
2017-08-04T14:44:52.569Z,993.86
2017-08-04T14:46:03.197Z,993.9
2017-08-04T14:47:13.584Z,993.86
2017-08-04T14:48:24.010Z,993.87
2017-08-04T14:49:34.392Z,993.83
2017-08-04T14:50:44.790Z,993.91
2017-08-04T14:51:55.232Z,993.87
2017-08-04T14:53:05.570Z,993.87
2017-08-04T14:54:15.677Z,993.88
2017-08-04T14:55:26.300Z,993.85
2017-08-04T14:56:36.902Z,993.83
2017-08-04T14:57:47.306Z,993.83
2017-08-04T14:58:57.696Z,993.8
2017-08-04T15:00:07.827Z,993.78
2017-08-04T15:01:21.213Z,993.79
2017-08-04T15:02:31.290Z,993.82
2017-08-04T15:03:41.658Z,993.82
2017-08-04T15:04:52.061Z,993.77
2017-08-04T15:06:02.508Z,993.75
2017-08-04T15:07:12.569Z,993.73
2017-08-04T15:08:22.947Z,993.75
2017-08-04T15:09:33.744Z,993.69
2017-08-04T15:10:44.131Z,993.71
2017-08-04T15:11:54.236Z,993.65